Time;durP1;ratioP1;P1;durP2;ratioP2;P2;SDS_P1;SDS_P2;PMS_P1;PMS_P2;Temp;Humidity;BMP_temperature;BMP_pressure;BME280_temperature;BME280_humidity;BME280_pressure;Samples;Min_cycle;Max_cycle;Signal;HPM_P1;HPM_P2
2023/06/26 00:02:12;;;;;;;;;;;;;;;22.80;100.00;99615.69;5072101;28;19916;-76
2023/06/26 00:04:38;;;;;;;;;;;;;;;22.98;100.00;99621.13;5066803;28;20413;-77
2023/06/26 00:07:04;;;;;;;;;;;;;;;23.14;100.00;99620.56;5071708;28;19940;-78
2023/06/26 00:09:29;;;;;;;;;;;;;;;23.17;100.00;99625.50;5072233;28;20017;-80
2023/06/26 00:11:54;;;;;;;;;;;;;;;23.07;100.00;99625.19;5071714;28;19923;-80
2023/06/26 00:14:20;;;;;;;;;;;;;;;23.10;100.00;99619.34;5071846;28;19923;-79
2023/06/26 00:16:46;;;;;;;;;;;;;;;23.15;100.00;99619.50;5066154;28;19916;-79
2023/06/26 00:19:11;;;;;;;;;;;;;;;23.23;100.00;99629.16;5071683;28;20328;-80
2023/06/26 00:21:36;;;;;;;;;;;;;;;23.23;100.00;99619.22;5072148;28;20442;-80
2023/06/26 00:24:02;;;;;;;;;;;;;;;23.28;100.00;99622.06;5071138;28;20011;-79
2023/06/26 00:26:28;;;;;;;;;;;;;;;23.32;100.00;99624.31;5067351;28;19923;-79
2023/06/26 00:28:53;;;;;;;;;;;;;;;23.37;100.00;99625.28;5065324;28;19920;-79
2023/06/26 00:31:19;;;;;;;;;;;;;;;23.24;100.00;99623.56;5071588;28;19916;-79
2023/06/26 00:33:44;;;;;;;;;;;;;;;23.16;100.00;99623.00;5071622;28;20466;-78
2023/06/26 00:36:10;;;;;;;;;;;;;;;23.15;100.00;99635.66;5071496;28;20275;-79
2023/06/26 00:38:36;;;;;;;;;;;;;;;23.16;100.00;99631.91;5071296;28;19959;-77
2023/06/26 00:41:01;;;;;;;;;;;;;;;23.17;100.00;99636.25;5069885;28;19955;-79
2023/06/26 00:43:28;;;;;;;;;;;;;;;23.14;100.00;99628.66;5072098;28;20304;-79
2023/06/26 00:45:53;;;;;;;;;;;;;;;23.09;100.00;99638.44;5071619;28;19920;-78
2023/06/26 00:48:19;;;;;;;;;;;;;;;22.99;100.00;99638.91;5073740;28;19916;-79
2023/06/26 00:50:44;;;;;;;;;;;;;;;22.85;100.00;99632.03;5073599;28;19968;-80
2023/06/26 00:53:10;;;;;;;;;;;;;;;22.64;100.00;99635.03;5072374;28;20371;-81
2023/06/26 00:55:36;;;;;;;;;;;;;;;22.55;100.00;99633.69;5071826;28;19916;-80
2023/06/26 00:58:02;;;;;;;;;;;;;;;22.55;100.00;99636.38;5068751;28;20486;-80
2023/06/26 01:00:27;;;;;;;;;;;;;;;22.54;100.00;99638.22;5068721;28;20342;-79
2023/06/26 01:02:53;;;;;;;;;;;;;;;22.64;100.00;99640.44;5068803;28;19923;-80
2023/06/26 01:05:20;;;;;;;;;;;;;;;22.74;100.00;99640.78;5064944;28;19917;-79
2023/06/26 01:07:48;;;;;;;;;;;;;;;22.78;100.00;99631.25;5071085;28;19977;-79
2023/06/26 01:10:14;;;;;;;;;;;;;;;22.82;100.00;99637.81;5071108;28;20314;-79
2023/06/26 01:12:39;;;;;;;;;;;;;;;22.87;100.00;99643.38;5067208;28;20382;-80
2023/06/26 01:15:05;;;;;;;;;;;;;;;22.82;100.00;99643.22;5081967;28;19920;-80
2023/06/26 01:17:31;;;;;;;;;;;;;;;22.75;100.00;99637.06;5071092;28;20026;-80
2023/06/26 01:19:58;;;;;;;;;;;;;;;22.77;100.00;99632.28;5070806;28;19923;-79
2023/06/26 01:22:45;;;;;;;;;;;;;;;22.74;100.00;99632.72;5071342;28;19924;-81
2023/06/26 01:25:11;;;;;;;;;;;;;;;22.67;100.00;99634.63;5067153;28;19920;-80
2023/06/26 01:27:37;;;;;;;;;;;;;;;22.70;100.00;99634.16;5065213;28;19986;-80
2023/06/26 01:30:03;;;;;;;;;;;;;;;22.65;100.00;99620.56;5070051;28;19923;-80
2023/06/26 01:32:29;;;;;;;;;;;;;;;22.61;100.00;99624.75;5065727;28;19917;-80
2023/06/26 01:34:54;;;;;;;;;;;;;;;22.64;100.00;99629.66;5070524;28;19943;-80
2023/06/26 01:37:19;;;;;;;;;;;;;;;22.59;100.00;99626.81;5070570;28;20383;-79
2023/06/26 01:39:45;;;;;;;;;;;;;;;22.51;100.00;99625.22;5065255;28;19924;-79
2023/06/26 01:42:10;;;;;;;;;;;;;;;22.32;100.00;99631.56;5070300;28;19927;-80
2023/06/26 01:44:42;;;;;;;;;;;;;;;22.19;100.00;99627.09;5069150;28;19924;-79
2023/06/26 01:47:10;;;;;;;;;;;;;;;22.21;100.00;99625.00;5069906;28;19921;-79
2023/06/26 01:49:42;;;;;;;;;;;;;;;22.30;100.00;99629.09;5065455;28;20283;-79
2023/06/26 01:52:16;;;;;;;;;;;;;;;22.32;100.00;99629.69;5070077;28;19995;-79
2023/06/26 01:54:47;;;;;;;;;;;;;;;22.31;100.00;99622.66;5067250;28;19916;-80
2023/06/26 01:57:12;;;;;;;;;;;;;;;22.13;100.00;99627.94;5066562;28;19965;-80
2023/06/26 01:59:39;;;;;;;;;;;;;;;21.86;100.00;99626.38;5065463;28;20382;-78
2023/06/26 02:02:06;;;;;;;;;;;;;;;21.88;100.00;99627.00;5069095;28;19916;-79
2023/06/26 02:04:32;;;;;;;;;;;;;;;22.04;100.00;99629.22;5070630;28;19916;-79
2023/06/26 02:06:57;;;;;;;;;;;;;;;22.12;100.00;99620.94;5068751;28;20020;-79
2023/06/26 02:09:22;;;;;;;;;;;;;;;22.24;100.00;99629.94;5070358;28;20007;-78
2023/06/26 02:11:48;;;;;;;;;;;;;;;22.30;100.00;99639.84;5070291;28;19916;-78
2023/06/26 02:14:13;;;;;;;;;;;;;;;22.31;100.00;99636.13;5064466;28;19973;-78
2023/06/26 02:16:38;;;;;;;;;;;;;;;22.36;100.00;99628.22;5068990;28;19966;-78
2023/06/26 02:19:05;;;;;;;;;;;;;;;22.38;100.00;99631.50;5064427;28;19924;-79
2023/06/26 02:21:31;;;;;;;;;;;;;;;22.38;100.00;99642.25;5070374;28;19923;-79
2023/06/26 02:23:56;;;;;;;;;;;;;;;22.32;100.00;99637.78;5070003;28;19916;-78
2023/06/26 02:26:22;;;;;;;;;;;;;;;22.24;100.00;99643.38;5064827;28;19962;-78
2023/06/26 02:28:48;;;;;;;;;;;;;;;22.20;100.00;99644.03;5069994;28;19959;-79
2023/06/26 02:31:14;;;;;;;;;;;;;;;22.11;100.00;99646.16;5070253;28;20380;-79
2023/06/26 02:33:41;;;;;;;;;;;;;;;21.85;100.00;99643.56;5071084;28;19912;-78
2023/06/26 02:36:06;;;;;;;;;;;;;;;21.57;100.00;99643.84;5080905;28;19916;-78
2023/06/26 02:38:31;;;;;;;;;;;;;;;21.51;100.00;99650.91;5070060;28;20280;-78
2023/06/26 02:40:58;;;;;;;;;;;;;;;21.59;100.00;99647.16;5070941;28;19940;-78
2023/06/26 02:43:23;;;;;;;;;;;;;;;21.54;100.00;99650.50;5074030;28;19975;-78
2023/06/26 02:45:49;;;;;;;;;;;;;;;21.60;100.00;99655.03;5067562;28;19993;-78
2023/06/26 02:48:14;;;;;;;;;;;;;;;21.60;100.00;99652.34;5073303;28;20372;-79
2023/06/26 02:50:41;;;;;;;;;;;;;;;21.64;100.00;99650.03;5068514;28;19921;-79
2023/06/26 02:53:11;;;;;;;;;;;;;;;21.69;100.00;99652.09;5068020;28;20380;-79
2023/06/26 02:55:39;;;;;;;;;;;;;;;21.70;100.00;99653.75;5072203;28;20015;-79
2023/06/26 02:58:05;;;;;;;3.83;3.53;;;;;;;21.68;100.00;99650.47;5051019;28;20074;-79
2023/06/26 03:00:32;;;;;;;4.60;3.88;;;;;;;21.71;100.00;99650.84;5071324;28;20067;-78
2023/06/26 03:03:00;;;;;;;4.05;3.65;;;;;;;21.74;100.00;99654.94;5071255;28;20507;-79
2023/06/26 03:05:26;;;;;;;;;;;;;;;21.65;100.00;99647.16;5071809;28;20020;-77
2023/06/26 03:07:52;;;;;;;;;;;;;;;21.20;100.00;99653.47;5068690;28;19936;-76
2023/06/26 03:10:17;;;;;;;;;;;;;;;21.03;100.00;99650.34;5068281;28;19952;-79
2023/06/26 03:12:43;;;;;;;;;;;;;;;20.90;100.00;99652.22;5068005;28;20296;-79
2023/06/26 03:15:11;;;;;;;;;;;;;;;20.69;100.00;99655.91;5071459;28;19925;-78
2023/06/26 03:17:37;;;;;;;;;;;;;;;20.74;100.00;99656.94;5071732;28;19940;-79
2023/06/26 03:20:06;;;;;;;;;;;;;;;20.84;100.00;99659.22;5071083;28;19920;-78
2023/06/26 03:22:47;;;;;;;;;;;;;;;21.00;100.00;99663.34;5070198;28;19924;-78
2023/06/26 03:25:13;;;;;;;;;;;;;;;21.06;100.00;99663.34;5067563;28;19921;-79
2023/06/26 03:27:38;;;;;;;;;;;;;;;21.12;100.00;99661.69;5072845;28;19942;-79
2023/06/26 03:30:04;;;;;;;;;;;;;;;21.15;100.00;99656.75;5070946;28;19936;-79
2023/06/26 03:32:30;;;;;;;;;;;;;;;21.18;100.00;99663.56;5067256;28;19921;-79
2023/06/26 03:34:56;;;;;;;;;;;;;;;21.24;100.00;99668.09;5071307;28;20418;-79
2023/06/26 03:37:22;;;;;;;;;;;;;;;21.29;100.00;99656.75;5071428;28;19970;-79
2023/06/26 03:39:48;;;;;;;;;;;;;;;21.34;100.00;99660.44;5056569;28;19970;-79
2023/06/26 03:42:14;;;;;;;;;;;;;;;21.38;100.00;99667.06;5072456;28;20423;-79
2023/06/26 03:44:39;;;;;;;;;;;;;;;21.41;100.00;99666.63;5071272;28;19920;-78
2023/06/26 03:47:04;;;;;;;;;;;;;;;21.43;100.00;99664.56;5066295;28;19968;-78
2023/06/26 03:49:30;;;;;;;;;;;;;;;21.48;100.00;99669.31;5067080;28;19944;-79
2023/06/26 03:51:55;;;;;;;;;;;;;;;21.44;100.00;99668.88;5049639;28;20019;-79
2023/06/26 03:54:21;;;;;;;;;;;;;;;21.44;100.00;99674.25;5066703;28;20075;-79
2023/06/26 03:56:47;;;;;;;;;;;;;;;21.41;100.00;99681.91;5070871;28;19951;-79
2023/06/26 03:59:12;;;;;;;;;;;;;;;21.42;100.00;99683.56;5073044;28;19947;-79
2023/06/26 04:01:38;;;;;;;;;;;;;;;21.42;100.00;99684.41;5072069;28;20358;-79
2023/06/26 04:04:04;;;;;;;;;;;;;;;21.14;100.00;99686.47;5066871;28;19969;-77
2023/06/26 04:06:31;;;;;;;;;;;;;;;20.59;100.00;99682.31;5071057;28;19935;-78
2023/06/26 04:08:57;;;;;;;;;;;;;;;20.71;100.00;99681.50;5071901;28;19924;-77
2023/06/26 04:11:22;;;;;;;;;;;;;;;20.79;100.00;99683.97;5066967;28;19927;-78
2023/06/26 04:13:47;;;;;;;;;;;;;;;20.88;100.00;99691.81;5072348;28;20015;-78
2023/06/26 04:16:13;;;;;;;;;;;;;;;20.97;100.00;99693.28;5071536;28;19990;-78
2023/06/26 04:18:38;;;;;;;;;;;;;;;21.04;100.00;99699.44;5071675;28;20367;-78
2023/06/26 04:21:11;;;;;;;;;;;;;;;20.98;100.00;99693.06;5082294;22;20368;-87
2023/06/26 04:23:37;;;;;;;;;;;;;;;20.96;100.00;99686.28;5053126;28;20023;-87
2023/06/26 04:26:04;;;;;;;;;;;;;;;21.03;100.00;99697.81;5061503;28;19963;-88
2023/06/26 04:28:30;;;;;;;;;;;;;;;21.02;100.00;99690.81;5066017;28;19927;-87
2023/06/26 04:30:55;;;;;;;;;;;;;;;21.04;100.00;99699.44;5071334;28;19916;-89
2023/06/26 04:33:20;;;;;;;;;;;;;;;21.11;100.00;99713.69;5074668;28;19913;-89
2023/06/26 04:35:48;;;;;;;;;;;;;;;21.13;100.00;99706.28;5078902;28;19924;-89
2023/06/26 04:38:14;;;;;;;;;;;;;;;21.19;100.00;99713.53;5066090;28;19940;-90
2023/06/26 04:40:39;;;;;;;;;;;;;;;21.11;100.00;99702.97;5064647;28;19927;-88
2023/06/26 04:43:04;;;;;;;;;;;;;;;21.12;100.00;99707.31;5054389;28;19936;-86
2023/06/26 04:45:30;;;;;;;;;;;;;;;21.12;100.00;99700.09;5066108;28;19921;-90
2023/06/26 04:47:57;;;;;;;;;;;;;;;21.13;100.00;99706.28;5054464;28;19924;-91
2023/06/26 04:50:23;;;;;;;;;;;;;;;21.17;100.00;99704.84;5053134;28;20284;-90
2023/06/26 04:52:48;;;;;;;;;;;;;;;21.16;100.00;99706.72;5054759;28;19931;-90
2023/06/26 04:55:13;;;;;;;;;;;;;;;21.18;100.00;99709.19;5052198;28;19921;-89
2023/06/26 04:57:39;;;;;;;;;;;;;;;21.16;100.00;99705.88;5052896;28;19921;-83
2023/06/26 05:00:09;;;;;;;;;;;;;;;21.18;100.00;99703.81;5050261;28;19928;-84
2023/06/26 05:02:35;;;;;;;;;;;;;;;21.24;100.00;99703.00;5052770;28;19930;-84
2023/06/26 05:05:00;;;;;;;;;;;;;;;21.32;100.00;99710.03;5055025;28;19925;-84
2023/06/26 05:07:25;;;;;;;;;;;;;;;21.37;100.00;99708.34;5054434;28;20344;-85
2023/06/26 05:09:51;;;;;;;;;;;;;;;21.32;100.00;99710.03;5053487;28;19921;-79
2023/06/26 05:12:16;;;;;;;;;;;;;;;21.36;100.00;99717.44;5055359;28;20026;-79
2023/06/26 05:14:41;;;;;;;;;;;;;;;21.32;100.00;99710.03;5056520;28;19982;-78
2023/06/26 05:17:07;;;;;;;;;;;;;;;21.39;100.00;99711.63;5051395;28;19935;-78
2023/06/26 05:19:32;;;;;;;;;;;;;;;21.41;100.00;99714.94;5054896;28;19924;-78
2023/06/26 05:21:58;;;;;;;;;;;;;;;21.42;100.00;99716.59;5052824;28;19920;-79
2023/06/26 05:24:24;;;;;;;;;;;;;;;21.44;100.00;99719.88;5054537;28;20376;-76
2023/06/26 05:26:50;;;;;;;;;;;;;;;21.50;100.00;99713.69;5051546;28;20036;-79
2023/06/26 05:29:16;;;;;;;;;;;;;;;21.54;100.00;99712.25;5048582;28;20016;-79
2023/06/26 05:31:41;;;;;;;;;;;;;;;21.52;100.00;99717.00;5057095;28;20380;-79
2023/06/26 05:34:07;;;;;;;;;;;;;;;21.59;100.00;99719.66;5053511;28;19981;-80
2023/06/26 05:36:33;;;;;;;;;;;;;;;21.59;100.00;99717.81;5053673;28;19932;-83
2023/06/26 05:38:59;;;;;;;;;;;;;;;21.67;100.00;99724.00;5051598;28;19922;-80
2023/06/26 05:41:25;;;;;;;;;;;;;;;21.83;100.00;99720.84;5052704;28;19928;-83
2023/06/26 05:43:51;;;;;;;;;;;;;;;21.87;100.00;99724.75;5033765;28;20387;-81
2023/06/26 05:46:16;;;;;;;;;;;;;;;21.88;100.00;99726.41;5051698;28;19927;-80
2023/06/26 05:48:41;;;;;;;;;;;;;;;21.99;100.00;99728.47;5046981;28;19932;-82
2023/06/26 05:51:07;;;;;;;;;;;;;;;22.05;100.00;99738.38;5051187;28;20081;-82
2023/06/26 05:53:32;;;;;;;;;;;;;;;22.13;100.00;99735.44;5057361;28;19932;-81
2023/06/26 05:55:58;;;;;;;;;;;;;;;22.18;100.00;99732.94;5051219;28;19975;-79
2023/06/26 05:58:27;;;;;;;;;;;;;;;22.21;100.00;99729.00;5051953;28;19925;-81
2023/06/26 06:00:53;;;;;;;;;;;;;;;22.29;100.00;99729.59;5053817;28;19928;-81
2023/06/26 06:03:18;;;;;;;;;;;;;;;22.32;100.00;99731.84;5051300;28;19924;-79
2023/06/26 06:05:43;;;;;;;;;;;;;;;22.38;100.00;99733.66;5051338;28;20288;-81
2023/06/26 06:08:09;;;;;;;;;;;;;;;22.48;100.00;99732.38;5057015;28;20355;-78
2023/06/26 06:10:34;;;;;;;;;;;;;;;22.52;100.00;99734.44;5053131;28;19925;-92
2023/06/26 06:13:00;;;;;;;;;;;;;;;22.61;100.00;99733.16;5049360;28;20246;-82
2023/06/26 06:15:25;;;;;;;;;;;;;;;22.66;100.00;99740.56;5050954;28;19921;-82
2023/06/26 06:17:50;;;;;;;;;;;;;;;22.68;100.00;99738.50;5058308;28;19936;-79
2023/06/26 06:20:17;;;;;;;;;;;;;;;22.71;100.00;99736.19;5057144;28;20373;-83
2023/06/26 06:22:42;;;;;;;;;;;;;;;22.74;100.00;99749.22;5056073;28;19921;-81
2023/06/26 06:25:08;;;;;;;;;;;;;;;22.76;100.00;99738.25;5053824;28;19931;-81
2023/06/26 06:27:33;;;;;;;;;;;;;;;22.81;100.00;99735.72;5056032;28;20317;-82
2023/06/26 06:29:58;;;;;;;;;;;;;;;22.90;100.00;99731.75;5056249;28;19998;-81
2023/06/26 06:32:24;;;;;;;;;;;;;;;22.95;100.00;99739.97;5053740;28;19929;-82
2023/06/26 06:34:49;;;;;;;;;;;;;;;23.00;100.00;99737.47;5058441;28;19925;-81
2023/06/26 06:37:14;;;;;;;;;;;;;;;23.05;100.00;99728.72;5054498;28;19924;-82
2023/06/26 06:39:40;;;;;;;;;;;;;;;23.11;100.00;99723.28;5056538;28;19968;-82
2023/06/26 06:42:05;;;;;;;;;;;;;;;23.19;100.00;99728.41;5055147;28;20349;-81
2023/06/26 06:44:30;;;;;;;;;;;;;;;23.27;100.00;99722.72;5036114;28;20323;-82
2023/06/26 06:46:56;;;;;;;;;;;;;;;23.37;100.00;99732.19;5058957;28;19924;-82
2023/06/26 06:49:21;;;;;;;;;;;;;;;23.46;100.00;99717.38;5052291;28;19995;-82
2023/06/26 06:51:46;;;;;;;;;;;;;;;23.54;100.00;99727.91;5051715;28;19916;-82
2023/06/26 06:54:12;;;;;;;;;;;;;;;23.59;100.00;99730.75;5055262;28;19923;-82
2023/06/26 06:56:37;;;;;;;;;;;;;;;23.69;100.00;99736.44;5054643;28;19917;-81
2023/06/26 06:59:03;;;;;;;;;;;;;;;23.76;100.00;99731.81;5055701;28;20007;-79
2023/06/26 07:01:28;;;;;;;;;;;;;;;23.82;100.00;99728.22;5056778;28;19916;-83
2023/06/26 07:03:53;;;;;;;;;;;;;;;23.92;100.00;99720.44;5053389;28;19917;-82
2023/06/26 07:06:19;;;;;;;;;;;;;;;23.99;100.00;99725.75;5050544;28;19986;-83
2023/06/26 07:08:44;;;;;;;;;;;;;;;24.00;100.00;99728.22;5054446;28;20334;-83
2023/06/26 07:11:09;;;;;;;;;;;;;;;24.07;100.00;99728.16;5055446;28;19925;-82
2023/06/26 07:13:35;;;;;;;;;;;;;;;24.17;100.00;99728.44;5055580;28;19931;-83
2023/06/26 07:16:00;;;;;;;;;;;;;;;24.26;100.00;99726.28;5053658;28;20343;-80
2023/06/26 07:18:25;;;;;;;;;;;;;;;24.32;100.00;99731.59;5058211;28;19970;-82
2023/06/26 07:20:51;;;;;;;;;;;;;;;24.28;100.00;99729.56;5056658;28;19940;-82
2023/06/26 07:23:16;;;;;;;;;;;;;;;24.28;100.00;99730.38;5053152;28;19917;-82
2023/06/26 07:25:41;;;;;;;;;;;;;;;24.36;100.00;99722.00;5058185;28;19956;-82
2023/06/26 07:28:11;;;;;;;;;;;;;;;24.46;100.00;99733.06;5053030;28;19924;-82
2023/06/26 07:30:36;;;;;;;;;;;;;;;24.50;100.00;99722.66;5054793;28;19924;-82
2023/06/26 07:33:02;;;;;;;;;;;;;;;24.59;100.00;99729.34;5056088;28;19916;-82
2023/06/26 07:35:27;;;;;;;;;;;;;;;24.66;100.00;99730.09;5054193;28;19921;-82
2023/06/26 07:37:52;;;;;;;;;;;;;;;24.70;100.00;99723.16;5055562;28;19970;-82
2023/06/26 07:40:18;;;;;;;;;;;;;;;24.72;100.00;99726.47;5056585;28;20296;-82
2023/06/26 07:42:43;;;;;;;;;;;;;;;24.81;100.00;99727.78;5052604;28;20334;-82
2023/06/26 07:45:12;;;;;;;;;;;;;;;24.89;100.00;99726.66;5057498;28;19992;-82
2023/06/26 07:47:38;;;;;;;;;;;;;;;24.90;100.00;99725.59;5054958;28;19925;-82
2023/06/26 07:50:03;;;;;;;;;;;;;;;24.99;100.00;99723.38;5053637;28;19932;-83
2023/06/26 07:52:30;;;;;;;;;;;;;;;25.09;100.00;99718.25;5052089;28;19925;-82
2023/06/26 07:54:55;;;;;;;;;;;;;;;25.18;100.00;99720.38;5055995;28;19942;-82
2023/06/26 07:57:21;;;;;;;;;;;;;;;25.22;100.00;99720.72;5051954;28;19917;-81
2023/06/26 07:59:46;;;;;;;;;;;;;;;25.28;100.00;99723.28;5052747;28;19975;-82
2023/06/26 08:02:12;;;;;;;;;;;;;;;25.36;100.00;99716.72;5053478;28;20111;-82
2023/06/26 08:04:37;;;;;;;;;;;;;;;25.44;100.00;99712.88;5054771;28;20387;-81
2023/06/26 08:07:03;;;;;;;;;;;;;;;25.50;100.00;99720.03;5055203;28;20434;-81
2023/06/26 08:09:29;;;;;;;;;;;;;;;25.56;100.00;99714.53;5060617;28;19917;-81
2023/06/26 08:11:55;;;;;;;;;;;;;;;25.57;100.00;99713.47;5052850;28;20379;-80
2023/06/26 08:14:21;;;;;;;;;;;;;;;25.66;100.00;99716.63;5063959;28;19924;-81
2023/06/26 08:16:46;;;;;;;;;;;;;;;25.68;100.00;99707.22;5058136;28;20015;-81
2023/06/26 08:19:15;;;;;;;;;;;;;;;25.71;100.00;99705.09;5056411;28;19995;-80
2023/06/26 08:21:41;;;;;;;;;;;;;;;25.75;100.00;99703.56;5053072;28;19952;-81
2023/06/26 08:24:06;;;;;;;;;;;;;;;25.81;100.00;99702.63;5055467;28;20420;-82
2023/06/26 08:26:31;;;;;;;;;;;;;;;25.89;100.00;99704.97;5061483;28;19916;-83
2023/06/26 08:28:57;;;;;;;;;;;;;;;25.95;100.00;99710.22;5058429;28;19916;-80
2023/06/26 08:31:22;;;;;;;;;;;;;;;26.04;100.00;99707.97;5054885;28;20368;-80
2023/06/26 08:33:48;;;;;;;;;;;;;;;26.10;100.00;99702.41;5053206;28;19917;-83
2023/06/26 08:36:13;;;;;;;;;;;;;;;26.16;100.00;99706.03;5055855;28;20360;-83
2023/06/26 08:38:40;;;;;;;;;;;;;;;26.21;100.00;99692.66;5055408;28;20339;-81
2023/06/26 08:41:09;;;;;;;;;;;;;;;26.25;100.00;99704.66;5052297;28;20015;-81
2023/06/26 08:43:35;;;;;;;;;;;;;;;26.29;100.00;99689.56;5055959;28;20022;-82
2023/06/26 08:46:01;;;;;;;;;;;;;;;26.34;100.00;99686.13;5056286;28;19924;-82
2023/06/26 08:48:29;;;;;;;;;;;;;;;26.41;100.00;99684.94;5057123;28;19917;-79
2023/06/26 08:50:55;;;;;;;;;;;;;;;26.47;100.00;99686.66;5056999;28;19917;-81
2023/06/26 08:53:29;;;;;;;;;;;;;;;26.54;100.00;99685.69;5054862;28;19944;-78
2023/06/26 08:55:57;;;;;;;;;;;;;;;26.60;100.00;99680.13;5054990;28;19917;-79
2023/06/26 08:58:22;;;;;;;;;;;;;;;26.67;100.00;99685.41;5051730;28;19916;-78
2023/06/26 09:00:49;;;;;;;;;;;;;;;26.74;100.00;99686.06;5056816;28;19931;-80
2023/06/26 09:03:15;;;;;;;;;;;;;;;26.79;100.00;99688.84;5052856;28;19943;-80
2023/06/26 09:05:40;;;;;;;;;;;;;;;26.83;100.00;99687.28;5051656;28;19924;-78
2023/06/26 09:08:06;;;;;;;;;;;;;;;26.86;100.00;99679.50;5053425;28;19925;-80
2023/06/26 09:10:32;;;;;;;;;;;;;;;26.94;100.00;99686.41;5052656;28;19923;-80
2023/06/26 09:12:57;;;;;;;;;;;;;;;27.03;100.00;99684.13;5048237;28;19917;-79
2023/06/26 09:15:23;;;;;;;;;;;;;;;27.07;100.00;99677.97;5054849;28;19916;-79
2023/06/26 09:17:48;;;;;;;;;;;;;;;27.14;100.00;99675.94;5052021;28;19962;-82
2023/06/26 09:20:14;;;;;;;;;;;;;;;27.19;100.00;99673.28;5054544;28;19916;-79
2023/06/26 09:22:41;;;;;;;;;;;;;;;27.25;100.00;99672.28;5053200;28;19924;-79
2023/06/26 09:25:07;;;;;;;;;;;;;;;27.30;100.00;99674.25;5052006;28;19924;-79
2023/06/26 09:27:32;;;;;;;;;;;;;;;27.34;100.00;99674.56;5052346;28;19924;-79
2023/06/26 09:29:58;;;;;;;;;;;;;;;27.38;99.79;99670.31;5053791;28;19923;-80
2023/06/26 09:32:27;;;;;;;;;;;;;;;27.43;98.56;99668.50;5050176;28;20007;-79
2023/06/26 09:34:55;;;;;;;;;;;;;;;27.50;97.60;99673.72;5054224;28;20030;-79
2023/06/26 09:37:22;;;;;;;;;;;;;;;27.55;94.03;99671.13;5051828;28;19916;-80
2023/06/26 09:39:48;;;;;;;;;;;;;;;27.57;93.42;99663.53;5054492;28;19922;-80
2023/06/26 09:42:14;;;;;;;;;;;;;;;27.61;92.98;99670.94;5053046;28;20283;-80
2023/06/26 09:44:43;;;;;;;;;;;;;;;27.68;91.88;99662.63;5052817;28;19924;-80
2023/06/26 09:47:09;;;;;;;;;;;;;;;27.73;91.91;99661.88;5056230;28;19935;-80
2023/06/26 09:49:34;;;;;;;;;;;;;;;27.77;92.03;99663.81;5051004;28;19917;-81
2023/06/26 09:52:00;;;;;;;;;;;;;;;27.84;90.97;99656.31;5053736;28;20057;-80
2023/06/26 09:54:28;;;;;;;;;;;;;;;27.88;91.56;99654.72;5052594;28;20020;-80
2023/06/26 09:56:55;;;;;;;;;;;;;;;28.04;90.12;99653.00;5051457;28;19923;-80
2023/06/26 09:59:20;;;;;;;;;;;;;;;28.09;87.49;99648.47;5053435;28;20351;-80
2023/06/26 10:01:46;;;;;;;;;;;;;;;28.11;84.27;99659.06;5053705;28;19917;-79
2023/06/26 10:04:11;;;;;;;;;;;;;;;28.16;83.07;99647.50;5050212;28;19916;-81
2023/06/26 10:06:40;;;;;;;;;;;;;;;28.18;83.14;99642.63;5056037;28;19916;-80
2023/06/26 10:09:06;;;;;;;;;;;;;;;28.30;83.09;99643.28;5051588;28;19928;-81
2023/06/26 10:11:37;;;;;;;;;;;;;;;28.33;84.52;99640.91;5053780;28;20390;-81
2023/06/26 10:14:04;;;;;;;;;;;;;;;28.34;85.38;99641.69;5051948;28;19921;-80
2023/06/26 10:16:31;;;;;;;;;;;;;;;28.36;85.34;99634.94;5065426;28;19964;-80
2023/06/26 10:19:01;;;;;;;;;;;;;;;28.37;85.19;99635.75;5052774;28;19917;-80
2023/06/26 10:21:26;;;;;;;;;;;;;;;28.42;86.16;99635.81;5049320;28;20385;-80
2023/06/26 10:23:53;;;;;;;;;;;;;;;28.44;86.70;99639.09;5048750;28;20007;-81
2023/06/26 10:26:20;;;;;;;;;;;;;;;28.45;86.58;99638.03;5054754;28;19921;-79
2023/06/26 10:28:54;;;;;;;;;;;;;;;28.46;86.87;99634.22;5053765;28;19917;-80
2023/06/26 10:31:22;;;;;;;;;;;;;;;28.52;86.00;99638.59;5053872;28;19928;-80
2023/06/26 10:33:48;;;;;;;;;;;;;;;28.59;86.21;99633.78;5055068;28;19916;-79
2023/06/26 10:36:18;;;;;;;;;;;;;;;28.61;86.68;99625.41;5050959;28;20433;-80
2023/06/26 10:38:54;;;;;;;;;;;;;;;28.66;85.84;99623.53;5049615;28;20272;-80
2023/06/26 10:41:21;;;;;;;;;;;;;;;28.69;85.98;99623.00;5049669;28;19912;-80
2023/06/26 10:43:49;;;;;;;;;;;;;;;28.74;86.00;99623.09;5051134;28;19923;-79
2023/06/26 10:46:14;;;;;;;;;;;;;;;28.78;85.30;99616.06;5053657;28;19978;-80
2023/06/26 10:48:55;;;;;;;;;;;;;;;28.82;85.87;99617.19;5053939;28;20457;-80
2023/06/26 10:51:21;;;;;;;;;;;;;;;28.86;84.72;99612.84;5050151;28;19913;-80
2023/06/26 10:53:50;;;;;;;;;;;;;;;28.90;84.78;99619.41;5055668;28;19924;-80
2023/06/26 10:56:15;;;;;;;;;;;;;;;28.98;83.69;99614.59;5051701;28;19917;-79
2023/06/26 10:58:41;;;;;;;;;;;;;;;29.01;82.95;99609.44;5054058;28;20307;-80
2023/06/26 11:01:23;;;;;;;;;;;;;;;29.08;83.12;99614.66;5052920;28;19920;-79
2023/06/26 11:04:01;;;;;;;;;;;;;;;29.13;83.22;99606.53;5049095;28;20492;-79
2023/06/26 11:06:27;;;;;;;;;;;;;;;29.14;82.79;99608.16;5059752;28;19916;-80
2023/06/26 11:09:04;;;;;;;;;;;;;;;29.15;82.89;99601.66;5054299;28;19916;-80
2023/06/26 11:11:48;;;;;;;;;;;;;;;29.15;81.60;99598.94;5057342;28;20019;-77
2023/06/26 11:14:15;;;;;;;;;;;;;;;29.14;81.79;99600.00;5053988;28;19916;-80
2023/06/26 11:16:42;;;;;;;;;;;;;;;29.14;81.71;99602.72;5054282;28;19983;-79
2023/06/26 11:19:08;;;;;;;;;;;;;;;29.17;82.31;99602.19;5058417;28;19916;-79
2023/06/26 11:21:33;;;;;;;;;;;;;;;29.19;82.29;99597.31;5055963;28;20000;-79
2023/06/26 11:24:02;;;;;;;;;;;;;;;29.21;82.34;99593.28;5053370;28;20232;-78
2023/06/26 11:26:27;;;;;;;;;;;;;;;29.27;82.39;99583.25;5056016;28;19940;-79
2023/06/26 11:28:56;;;;;;;;;;;;;;;29.30;82.84;99588.13;5056099;28;20357;-78
2023/06/26 11:31:29;;;;;;;;;;;;;;;29.39;81.83;99588.50;5053288;28;19917;-79
2023/06/26 11:33:56;;;;;;;;;;;;;;;29.46;81.29;99584.44;5058420;28;19916;-79
2023/06/26 11:36:25;;;;;;;;;;;;;;;29.54;81.04;99583.94;5053548;28;19931;-80
2023/06/26 11:38:54;;;;;;;;;;;;;;;29.59;80.23;99581.22;5056098;28;20318;-80
2023/06/26 11:41:20;;;;;;;;;;;;;;;29.75;78.05;99587.53;5055241;28;20074;-80
2023/06/26 11:43:45;;;;;;;;;;;;;;;29.79;78.26;99587.84;5054788;28;19916;-80
2023/06/26 11:46:10;;;;;;;;;;;;;;;29.83;78.91;99578.88;5056178;28;20019;-80
2023/06/26 11:48:36;;;;;;;;;;;;;;;29.95;77.96;99581.38;5055946;28;20028;-79
2023/06/26 11:51:05;;;;;;;;;;;;;;;30.04;77.76;99574.34;5052571;28;19924;-80
2023/06/26 11:53:31;;;;;;;;;;;;;;;30.15;74.36;99573.25;5059001;28;19916;-80
2023/06/26 11:55:56;;;;;;;;;;;;;;;30.24;74.26;99574.34;5053562;28;19939;-80
2023/06/26 11:58:22;;;;;;;;;;;;;;;30.31;73.23;99574.09;5057146;28;20015;-80
2023/06/26 12:00:48;;;;;;;;;;;;;;;30.39;70.87;99571.66;5055235;28;19924;-79
2023/06/26 12:03:13;;;;;;;;;;;;;;;30.49;71.42;99571.69;5055151;28;19920;-81
2023/06/26 12:05:39;;;;;;;;;;;;;;;30.57;70.15;99566.78;5056082;28;19921;-79
2023/06/26 12:08:06;;;;;;;;;;;;;;;30.66;68.86;99565.13;5057228;28;20376;-78
2023/06/26 12:10:32;;;;;;;;;;;;;;;30.73;68.87;99560.22;5052114;28;20623;-80
2023/06/26 12:13:00;;;;;;;3.70;3.40;;;;;;;30.87;67.64;99555.81;5054084;28;19974;-79
2023/06/26 12:15:26;;;;;;;3.45;3.22;;;;;;;31.00;66.86;99560.69;5053617;28;20438;-80
2023/06/26 12:17:51;;;;;;;4.00;3.00;;;;;;;31.18;66.00;99551.97;5053002;28;20072;-78
2023/06/26 12:20:26;;;;;;;;;;;;;;;31.37;63.06;99559.53;5055536;28;19916;-80
2023/06/26 12:22:52;;;;;;;;;;;;;;;31.56;63.51;99546.91;5055560;28;20357;-79
2023/06/26 12:25:23;;;;;;;;;;;;;;;31.74;60.79;99551.75;5051628;28;19917;-80
2023/06/26 12:27:49;;;;;;;;;;;;;;;31.82;59.66;99551.16;5050733;28;20295;-79
2023/06/26 12:30:15;;;;;;;;;;;;;;;31.99;58.24;99543.41;5053416;28;19916;-79
2023/06/26 12:32:43;;;;;;;;;;;;;;;32.16;56.92;99550.44;5055650;28;20414;-80
2023/06/26 12:35:09;;;;;;;;;;;;;;;32.17;56.28;99539.22;5054391;28;20013;-80